Terminal Aerodrome Forecast
Issued by NWS Binghamton, NY

Home | Current Version | Previous Version | Text Only | Print | Product List | Glossary On
Versions: 1 2 3 4 5 6 7 8 9 10 11 12 13 14 15 16 17 18 19 20 21 22 23 24 25 26
000
FTUS41 KBGM 280659 AAA
TAFAVP
TAF AMD
KAVP 280659Z 2807/2906 00000KT 5SM BR OVC030
      TEMPO 2813/2817 3SM -SHRA BR OVC015
     FM281700 00000KT 3SM -SHRA BR OVC012
     FM290000 VRB03KT P6SM -SHRA OVC012=

USA.gov is the U.S. government's official web portal to all federal, state and local government web resources and services.